Terminal Aerodrome Forecast
Issued by NWS Wakefield, VA

Home | Current Version | Previous Version | Text Only | Print | Product List | Glossary On
Versions: 1 2 3 4 5 6 7 8 9 10 11 12 13 14 15 16 17 18 19
247
FTUS41 KAKQ 240039 AAA
TAFECG
TAF AMD
KECG 240039Z 2401/2424 05014G22KT P6SM OVC015
      TEMPO 2401/2405 4SM -RA BR OVC025
     FM240500 05011KT 6SM -RA OVC008
     FM240800 05009KT 4SM -RA BR OVC005
     FM241400 06009KT 5SM -RA OVC012
     FM242100 08012G19KT 5SM -RA BKN015=

USA.gov is the U.S. government's official web portal to all federal, state and local government web resources and services.